sensor_id;sensor_type;location;lat;lon;timestamp;P1;durP1;ratioP1;P2;durP2;ratioP2
13325;SDS011;6732;51.044;3.746;2023-06-14T00:00:58;3.40;;;3.10;;
13325;SDS011;6732;51.044;3.746;2023-06-14T00:03:24;3.75;;;3.45;;
13325;SDS011;6732;51.044;3.746;2023-06-14T00:05:51;5.35;;;3.03;;
13325;SDS011;6732;51.044;3.746;2023-06-14T00:08:17;3.08;;;2.88;;
13325;SDS011;6732;51.044;3.746;2023-06-14T00:10:44;3.72;;;3.05;;
13325;SDS011;6732;51.044;3.746;2023-06-14T00:13:10;3.65;;;3.33;;
13325;SDS011;6732;51.044;3.746;2023-06-14T00:15:37;4.25;;;2.45;;
13325;SDS011;6732;51.044;3.746;2023-06-14T00:18:04;3.80;;;3.00;;
13325;SDS011;6732;51.044;3.746;2023-06-14T00:20:31;3.40;;;3.10;;
13325;SDS011;6732;51.044;3.746;2023-06-14T00:22:58;3.35;;;3.00;;
13325;SDS011;6732;51.044;3.746;2023-06-14T00:25:25;3.65;;;3.22;;
13325;SDS011;6732;51.044;3.746;2023-06-14T00:27:51;3.85;;;2.92;;
13325;SDS011;6732;51.044;3.746;2023-06-14T00:30:17;3.05;;;2.85;;
13325;SDS011;6732;51.044;3.746;2023-06-14T00:32:44;4.05;;;3.03;;
13325;SDS011;6732;51.044;3.746;2023-06-14T00:35:10;3.33;;;3.00;;
13325;SDS011;6732;51.044;3.746;2023-06-14T00:37:37;3.10;;;2.90;;
13325;SDS011;6732;51.044;3.746;2023-06-14T00:40:03;3.83;;;3.05;;
13325;SDS011;6732;51.044;3.746;2023-06-14T00:42:30;3.30;;;3.00;;
13325;SDS011;6732;51.044;3.746;2023-06-14T00:44:56;4.78;;;3.30;;
13325;SDS011;6732;51.044;3.746;2023-06-14T00:47:23;3.10;;;2.83;;
13325;SDS011;6732;51.044;3.746;2023-06-14T00:49:49;3.35;;;2.75;;
13325;SDS011;6732;51.044;3.746;2023-06-14T00:52:18;3.45;;;2.60;;
13325;SDS011;6732;51.044;3.746;2023-06-14T00:54:45;3.35;;;3.05;;
13325;SDS011;6732;51.044;3.746;2023-06-14T00:57:10;4.18;;;2.83;;
13325;SDS011;6732;51.044;3.746;2023-06-14T00:59:47;2.78;;;2.58;;
13325;SDS011;6732;51.044;3.746;2023-06-14T01:02:14;3.42;;;2.95;;
13325;SDS011;6732;51.044;3.746;2023-06-14T01:04:41;2.97;;;2.70;;
13325;SDS011;6732;51.044;3.746;2023-06-14T01:15:16;3.55;;;3.17;;
13325;SDS011;6732;51.044;3.746;2023-06-14T01:17:43;3.25;;;2.95;;
13325;SDS011;6732;51.044;3.746;2023-06-14T01:20:11;3.10;;;2.80;;
13325;SDS011;6732;51.044;3.746;2023-06-14T01:22:52;3.25;;;3.00;;
13325;SDS011;6732;51.044;3.746;2023-06-14T01:25:19;3.40;;;3.10;;
13325;SDS011;6732;51.044;3.746;2023-06-14T01:27:59;3.13;;;2.90;;
13325;SDS011;6732;51.044;3.746;2023-06-14T01:30:27;3.20;;;2.90;;
13325;SDS011;6732;51.044;3.746;2023-06-14T01:32:56;3.10;;;2.72;;
13325;SDS011;6732;51.044;3.746;2023-06-14T01:35:23;3.10;;;2.80;;
13325;SDS011;6732;51.044;3.746;2023-06-14T01:37:49;3.00;;;2.80;;
13325;SDS011;6732;51.044;3.746;2023-06-14T01:40:17;3.15;;;2.90;;
13325;SDS011;6732;51.044;3.746;2023-06-14T01:42:46;3.65;;;3.13;;
13325;SDS011;6732;51.044;3.746;2023-06-14T01:45:14;3.58;;;3.28;;
13325;SDS011;6732;51.044;3.746;2023-06-14T01:47:41;3.00;;;2.80;;
13325;SDS011;6732;51.044;3.746;2023-06-14T01:50:07;3.28;;;2.97;;
13325;SDS011;6732;51.044;3.746;2023-06-14T01:52:33;3.20;;;2.90;;
13325;SDS011;6732;51.044;3.746;2023-06-14T01:54:59;3.10;;;2.90;;
13325;SDS011;6732;51.044;3.746;2023-06-14T01:57:28;2.95;;;2.65;;
13325;SDS011;6732;51.044;3.746;2023-06-14T01:59:54;2.95;;;2.75;;
13325;SDS011;6732;51.044;3.746;2023-06-14T02:02:20;5.13;;;2.97;;
13325;SDS011;6732;51.044;3.746;2023-06-14T02:04:46;3.13;;;2.78;;
13325;SDS011;6732;51.044;3.746;2023-06-14T02:07:12;3.38;;;3.05;;
13325;SDS011;6732;51.044;3.746;2023-06-14T02:09:40;3.60;;;3.30;;
13325;SDS011;6732;51.044;3.746;2023-06-14T02:12:06;3.53;;;3.22;;
13325;SDS011;6732;51.044;3.746;2023-06-14T02:14:33;3.60;;;2.70;;
13325;SDS011;6732;51.044;3.746;2023-06-14T02:16:59;3.90;;;3.15;;
13325;SDS011;6732;51.044;3.746;2023-06-14T02:19:26;3.10;;;2.90;;
13325;SDS011;6732;51.044;3.746;2023-06-14T02:21:52;3.20;;;2.85;;
13325;SDS011;6732;51.044;3.746;2023-06-14T02:24:18;3.40;;;3.08;;
13325;SDS011;6732;51.044;3.746;2023-06-14T02:26:44;3.72;;;2.97;;
13325;SDS011;6732;51.044;3.746;2023-06-14T02:29:10;3.15;;;2.90;;
13325;SDS011;6732;51.044;3.746;2023-06-14T02:31:38;3.38;;;3.10;;
13325;SDS011;6732;51.044;3.746;2023-06-14T02:34:04;3.25;;;2.95;;
13325;SDS011;6732;51.044;3.746;2023-06-14T02:55:56;3.50;;;3.20;;
13325;SDS011;6732;51.044;3.746;2023-06-14T02:58:22;3.20;;;2.90;;
13325;SDS011;6732;51.044;3.746;2023-06-14T03:00:50;3.17;;;2.92;;
13325;SDS011;6732;51.044;3.746;2023-06-14T03:03:18;3.25;;;3.00;;
13325;SDS011;6732;51.044;3.746;2023-06-14T03:05:46;3.10;;;2.90;;
13325;SDS011;6732;51.044;3.746;2023-06-14T03:08:15;4.40;;;3.25;;
13325;SDS011;6732;51.044;3.746;2023-06-14T03:10:45;3.03;;;2.72;;
13325;SDS011;6732;51.044;3.746;2023-06-14T03:13:15;3.20;;;3.00;;
13325;SDS011;6732;51.044;3.746;2023-06-14T03:15:41;3.28;;;2.80;;
13325;SDS011;6732;51.044;3.746;2023-06-14T03:18:08;3.20;;;2.90;;
13325;SDS011;6732;51.044;3.746;2023-06-14T03:20:35;3.55;;;3.25;;
13325;SDS011;6732;51.044;3.746;2023-06-14T03:23:01;3.22;;;2.97;;
13325;SDS011;6732;51.044;3.746;2023-06-14T03:25:28;4.90;;;3.10;;
13325;SDS011;6732;51.044;3.746;2023-06-14T03:28:01;6.28;;;3.33;;
13325;SDS011;6732;51.044;3.746;2023-06-14T03:30:27;3.63;;;3.30;;
13325;SDS011;6732;51.044;3.746;2023-06-14T03:32:55;3.97;;;3.15;;
13325;SDS011;6732;51.044;3.746;2023-06-14T03:35:21;5.60;;;3.67;;
13325;SDS011;6732;51.044;3.746;2023-06-14T03:37:47;4.40;;;3.30;;
13325;SDS011;6732;51.044;3.746;2023-06-14T03:40:32;4.20;;;3.00;;
13325;SDS011;6732;51.044;3.746;2023-06-14T03:42:58;4.32;;;3.25;;
13325;SDS011;6732;51.044;3.746;2023-06-14T03:45:23;3.47;;;3.22;;
13325;SDS011;6732;51.044;3.746;2023-06-14T03:47:49;3.60;;;3.30;;
13325;SDS011;6732;51.044;3.746;2023-06-14T03:50:16;3.58;;;3.28;;
13325;SDS011;6732;51.044;3.746;2023-06-14T03:52:43;3.78;;;3.17;;
13325;SDS011;6732;51.044;3.746;2023-06-14T03:55:09;3.78;;;3.40;;
13325;SDS011;6732;51.044;3.746;2023-06-14T03:57:38;3.25;;;2.95;;
13325;SDS011;6732;51.044;3.746;2023-06-14T04:00:04;3.78;;;3.47;;
13325;SDS011;6732;51.044;3.746;2023-06-14T04:02:31;4.18;;;3.13;;
13325;SDS011;6732;51.044;3.746;2023-06-14T04:04:57;3.60;;;3.30;;
13325;SDS011;6732;51.044;3.746;2023-06-14T04:07:23;3.45;;;2.92;;
13325;SDS011;6732;51.044;3.746;2023-06-14T04:09:50;3.50;;;3.20;;
13325;SDS011;6732;51.044;3.746;2023-06-14T04:12:16;3.20;;;2.90;;
13325;SDS011;6732;51.044;3.746;2023-06-14T04:14:42;3.28;;;2.97;;
13325;SDS011;6732;51.044;3.746;2023-06-14T04:17:08;3.30;;;3.00;;
13325;SDS011;6732;51.044;3.746;2023-06-14T04:19:34;3.75;;;3.45;;
13325;SDS011;6732;51.044;3.746;2023-06-14T04:22:00;3.15;;;2.85;;
13325;SDS011;6732;51.044;3.746;2023-06-14T04:24:27;3.50;;;3.20;;
13325;SDS011;6732;51.044;3.746;2023-06-14T04:27:00;3.90;;;3.40;;
13325;SDS011;6732;51.044;3.746;2023-06-14T04:29:26;3.47;;;3.17;;
13325;SDS011;6732;51.044;3.746;2023-06-14T04:31:54;3.13;;;2.92;;
13325;SDS011;6732;51.044;3.746;2023-06-14T04:34:27;3.20;;;2.90;;
13325;SDS011;6732;51.044;3.746;2023-06-14T04:36:56;3.40;;;3.10;;
13325;SDS011;6732;51.044;3.746;2023-06-14T04:39:23;3.53;;;3.22;;
13325;SDS011;6732;51.044;3.746;2023-06-14T04:41:50;3.28;;;3.08;;
13325;SDS011;6732;51.044;3.746;2023-06-14T04:44:20;4.22;;;3.50;;
13325;SDS011;6732;51.044;3.746;2023-06-14T04:46:49;3.55;;;3.25;;
13325;SDS011;6732;51.044;3.746;2023-06-14T04:49:15;3.70;;;3.40;;
13325;SDS011;6732;51.044;3.746;2023-06-14T04:51:43;3.30;;;2.97;;
13325;SDS011;6732;51.044;3.746;2023-06-14T04:54:11;3.22;;;2.95;;
13325;SDS011;6732;51.044;3.746;2023-06-14T04:56:40;3.42;;;3.10;;
13325;SDS011;6732;51.044;3.746;2023-06-14T04:59:07;3.40;;;3.00;;
13325;SDS011;6732;51.044;3.746;2023-06-14T05:01:34;3.53;;;3.22;;
13325;SDS011;6732;51.044;3.746;2023-06-14T05:04:00;3.75;;;3.30;;
13325;SDS011;6732;51.044;3.746;2023-06-14T05:06:26;11.02;;;3.80;;
13325;SDS011;6732;51.044;3.746;2023-06-14T05:08:55;3.50;;;3.20;;
13325;SDS011;6732;51.044;3.746;2023-06-14T05:11:21;4.15;;;3.45;;
13325;SDS011;6732;51.044;3.746;2023-06-14T05:13:49;4.22;;;3.53;;
13325;SDS011;6732;51.044;3.746;2023-06-14T05:16:16;9.93;;;4.60;;
13325;SDS011;6732;51.044;3.746;2023-06-14T05:18:44;8.85;;;3.80;;
13325;SDS011;6732;51.044;3.746;2023-06-14T05:21:12;7.05;;;3.85;;
13325;SDS011;6732;51.044;3.746;2023-06-14T05:23:42;6.03;;;3.97;;
13325;SDS011;6732;51.044;3.746;2023-06-14T05:26:10;4.57;;;3.70;;
13325;SDS011;6732;51.044;3.746;2023-06-14T05:28:36;6.32;;;3.33;;
13325;SDS011;6732;51.044;3.746;2023-06-14T05:31:02;5.90;;;3.33;;
13325;SDS011;6732;51.044;3.746;2023-06-14T05:33:28;8.20;;;3.63;;
13325;SDS011;6732;51.044;3.746;2023-06-14T05:35:54;4.35;;;3.05;;
13325;SDS011;6732;51.044;3.746;2023-06-14T05:38:20;4.65;;;3.58;;
13325;SDS011;6732;51.044;3.746;2023-06-14T05:40:46;6.10;;;3.17;;
13325;SDS011;6732;51.044;3.746;2023-06-14T05:43:12;4.03;;;3.10;;
13325;SDS011;6732;51.044;3.746;2023-06-14T05:45:38;5.55;;;3.20;;
13325;SDS011;6732;51.044;3.746;2023-06-14T05:48:04;5.53;;;3.25;;
13325;SDS011;6732;51.044;3.746;2023-06-14T05:50:30;3.47;;;3.00;;
13325;SDS011;6732;51.044;3.746;2023-06-14T05:52:56;4.05;;;3.03;;
13325;SDS011;6732;51.044;3.746;2023-06-14T05:55:22;4.20;;;3.20;;
13325;SDS011;6732;51.044;3.746;2023-06-14T05:57:48;3.90;;;3.25;;
13325;SDS011;6732;51.044;3.746;2023-06-14T06:00:14;3.92;;;3.15;;
13325;SDS011;6732;51.044;3.746;2023-06-14T06:02:41;4.68;;;3.80;;
13325;SDS011;6732;51.044;3.746;2023-06-14T06:05:11;3.40;;;3.10;;
13325;SDS011;6732;51.044;3.746;2023-06-14T06:07:38;4.55;;;3.20;;
13325;SDS011;6732;51.044;3.746;2023-06-14T06:10:09;5.45;;;3.35;;
13325;SDS011;6732;51.044;3.746;2023-06-14T06:12:36;5.93;;;3.30;;
13325;SDS011;6732;51.044;3.746;2023-06-14T06:15:02;4.47;;;3.15;;
13325;SDS011;6732;51.044;3.746;2023-06-14T06:17:29;3.78;;;2.70;;
13325;SDS011;6732;51.044;3.746;2023-06-14T06:19:55;3.30;;;3.00;;
13325;SDS011;6732;51.044;3.746;2023-06-14T06:22:21;4.53;;;3.63;;
13325;SDS011;6732;51.044;3.746;2023-06-14T06:24:47;6.20;;;3.47;;
13325;SDS011;6732;51.044;3.746;2023-06-14T06:27:13;3.78;;;3.08;;
13325;SDS011;6732;51.044;3.746;2023-06-14T06:29:39;4.53;;;3.17;;
13325;SDS011;6732;51.044;3.746;2023-06-14T06:32:07;6.82;;;3.70;;
13325;SDS011;6732;51.044;3.746;2023-06-14T06:34:33;4.47;;;3.45;;
13325;SDS011;6732;51.044;3.746;2023-06-14T06:36:59;6.07;;;3.88;;
13325;SDS011;6732;51.044;3.746;2023-06-14T06:39:26;5.68;;;3.47;;
13325;SDS011;6732;51.044;3.746;2023-06-14T06:41:52;3.88;;;3.28;;
13325;SDS011;6732;51.044;3.746;2023-06-14T06:44:18;7.32;;;3.25;;
13325;SDS011;6732;51.044;3.746;2023-06-14T06:46:44;4.43;;;3.33;;
13325;SDS011;6732;51.044;3.746;2023-06-14T06:49:10;6.20;;;3.17;;
13325;SDS011;6732;51.044;3.746;2023-06-14T06:51:37;4.13;;;3.13;;
13325;SDS011;6732;51.044;3.746;2023-06-14T06:54:07;3.92;;;3.28;;
13325;SDS011;6732;51.044;3.746;2023-06-14T06:56:34;4.65;;;3.47;;
13325;SDS011;6732;51.044;3.746;2023-06-14T06:59:00;3.00;;;2.80;;
13325;SDS011;6732;51.044;3.746;2023-06-14T07:01:26;3.63;;;3.33;;
13325;SDS011;6732;51.044;3.746;2023-06-14T07:03:56;4.82;;;3.30;;
13325;SDS011;6732;51.044;3.746;2023-06-14T07:06:22;4.20;;;3.30;;
13325;SDS011;6732;51.044;3.746;2023-06-14T07:08:52;3.10;;;2.90;;
13325;SDS011;6732;51.044;3.746;2023-06-14T07:11:18;5.05;;;3.70;;
13325;SDS011;6732;51.044;3.746;2023-06-14T07:13:44;4.00;;;3.30;;
13325;SDS011;6732;51.044;3.746;2023-06-14T07:16:10;4.10;;;3.30;;
13325;SDS011;6732;51.044;3.746;2023-06-14T07:18:36;3.67;;;2.75;;
13325;SDS011;6732;51.044;3.746;2023-06-14T07:21:02;3.13;;;2.83;;
13325;SDS011;6732;51.044;3.746;2023-06-14T07:23:28;3.60;;;3.13;;
13325;SDS011;6732;51.044;3.746;2023-06-14T07:25:54;3.08;;;2.70;;
13325;SDS011;6732;51.044;3.746;2023-06-14T07:28:20;2.75;;;2.55;;
13325;SDS011;6732;51.044;3.746;2023-06-14T07:30:46;3.13;;;2.70;;
13325;SDS011;6732;51.044;3.746;2023-06-14T07:33:13;3.30;;;3.00;;
13325;SDS011;6732;51.044;3.746;2023-06-14T07:35:39;3.20;;;2.90;;
13325;SDS011;6732;51.044;3.746;2023-06-14T07:38:05;3.10;;;2.80;;
13325;SDS011;6732;51.044;3.746;2023-06-14T07:40:31;3.28;;;2.97;;
13325;SDS011;6732;51.044;3.746;2023-06-14T07:42:57;3.30;;;3.00;;
13325;SDS011;6732;51.044;3.746;2023-06-14T07:45:23;4.18;;;3.40;;
13325;SDS011;6732;51.044;3.746;2023-06-14T07:47:49;3.30;;;2.85;;
13325;SDS011;6732;51.044;3.746;2023-06-14T07:50:15;3.38;;;2.80;;
13325;SDS011;6732;51.044;3.746;2023-06-14T07:52:41;2.92;;;2.63;;
13325;SDS011;6732;51.044;3.746;2023-06-14T07:55:07;5.13;;;3.13;;
13325;SDS011;6732;51.044;3.746;2023-06-14T07:57:33;3.20;;;2.90;;
13325;SDS011;6732;51.044;3.746;2023-06-14T08:00:00;2.97;;;2.78;;
13325;SDS011;6732;51.044;3.746;2023-06-14T08:02:26;3.63;;;2.83;;
13325;SDS011;6732;51.044;3.746;2023-06-14T08:04:52;3.40;;;3.10;;
13325;SDS011;6732;51.044;3.746;2023-06-14T08:07:18;3.78;;;2.97;;
13325;SDS011;6732;51.044;3.746;2023-06-14T08:09:44;3.50;;;2.65;;
13325;SDS011;6732;51.044;3.746;2023-06-14T08:12:10;3.50;;;3.20;;
13325;SDS011;6732;51.044;3.746;2023-06-14T08:14:36;2.88;;;2.65;;
13325;SDS011;6732;51.044;3.746;2023-06-14T08:17:02;2.90;;;2.70;;
13325;SDS011;6732;51.044;3.746;2023-06-14T08:19:28;2.70;;;2.50;;
13325;SDS011;6732;51.044;3.746;2023-06-14T08:21:54;2.42;;;2.22;;
13325;SDS011;6732;51.044;3.746;2023-06-14T08:24:21;3.00;;;2.70;;
13325;SDS011;6732;51.044;3.746;2023-06-14T08:26:50;2.80;;;2.15;;
13325;SDS011;6732;51.044;3.746;2023-06-14T08:29:16;2.42;;;2.22;;
13325;SDS011;6732;51.044;3.746;2023-06-14T08:31:42;2.30;;;2.15;;
13325;SDS011;6732;51.044;3.746;2023-06-14T08:34:08;3.20;;;2.33;;
13325;SDS011;6732;51.044;3.746;2023-06-14T08:36:35;2.20;;;2.10;;
13325;SDS011;6732;51.044;3.746;2023-06-14T08:39:01;2.00;;;1.90;;
13325;SDS011;6732;51.044;3.746;2023-06-14T08:41:27;2.38;;;2.17;;
13325;SDS011;6732;51.044;3.746;2023-06-14T08:43:55;2.60;;;2.40;;
13325;SDS011;6732;51.044;3.746;2023-06-14T08:46:22;2.75;;;2.55;;
13325;SDS011;6732;51.044;3.746;2023-06-14T08:48:52;2.30;;;2.10;;
13325;SDS011;6732;51.044;3.746;2023-06-14T08:51:22;2.10;;;2.00;;
13325;SDS011;6732;51.044;3.746;2023-06-14T08:53:52;2.50;;;2.30;;
13325;SDS011;6732;51.044;3.746;2023-06-14T08:56:25;2.30;;;2.10;;
13325;SDS011;6732;51.044;3.746;2023-06-14T08:58:53;2.70;;;2.40;;
13325;SDS011;6732;51.044;3.746;2023-06-14T09:01:19;2.67;;;2.20;;
13325;SDS011;6732;51.044;3.746;2023-06-14T09:03:48;2.35;;;2.15;;
13325;SDS011;6732;51.044;3.746;2023-06-14T09:06:14;2.45;;;2.25;;
13325;SDS011;6732;51.044;3.746;2023-06-14T09:08:44;2.65;;;2.45;;
13325;SDS011;6732;51.044;3.746;2023-06-14T09:11:12;2.25;;;2.05;;
13325;SDS011;6732;51.044;3.746;2023-06-14T09:13:39;2.67;;;2.47;;
13325;SDS011;6732;51.044;3.746;2023-06-14T09:16:06;2.55;;;2.35;;
13325;SDS011;6732;51.044;3.746;2023-06-14T09:18:34;2.40;;;2.30;;
13325;SDS011;6732;51.044;3.746;2023-06-14T09:21:00;2.67;;;2.47;;
13325;SDS011;6732;51.044;3.746;2023-06-14T09:23:27;2.60;;;2.40;;
13325;SDS011;6732;51.044;3.746;2023-06-14T09:25:53;2.50;;;2.30;;
13325;SDS011;6732;51.044;3.746;2023-06-14T09:28:19;2.63;;;2.42;;
13325;SDS011;6732;51.044;3.746;2023-06-14T09:30:51;2.60;;;2.40;;
13325;SDS011;6732;51.044;3.746;2023-06-14T09:33:20;2.65;;;2.10;;
13325;SDS011;6732;51.044;3.746;2023-06-14T09:35:46;2.78;;;2.58;;
13325;SDS011;6732;51.044;3.746;2023-06-14T09:38:16;2.60;;;2.40;;
13325;SDS011;6732;51.044;3.746;2023-06-14T09:40:42;2.25;;;2.15;;
13325;SDS011;6732;51.044;3.746;2023-06-14T09:43:08;2.30;;;2.10;;
13325;SDS011;6732;51.044;3.746;2023-06-14T09:45:35;2.47;;;2.28;;
13325;SDS011;6732;51.044;3.746;2023-06-14T09:48:04;2.13;;;2.03;;
13325;SDS011;6732;51.044;3.746;2023-06-14T09:50:31;2.53;;;2.33;;
13325;SDS011;6732;51.044;3.746;2023-06-14T09:52:59;2.40;;;2.20;;
13325;SDS011;6732;51.044;3.746;2023-06-14T09:55:37;2.60;;;2.40;;
13325;SDS011;6732;51.044;3.746;2023-06-14T09:58:06;2.63;;;2.40;;
13325;SDS011;6732;51.044;3.746;2023-06-14T10:00:33;2.70;;;2.50;;
13325;SDS011;6732;51.044;3.746;2023-06-14T10:03:05;2.90;;;2.60;;
13325;SDS011;6732;51.044;3.746;2023-06-14T10:05:36;2.83;;;2.55;;
13325;SDS011;6732;51.044;3.746;2023-06-14T10:08:04;3.58;;;2.60;;
13325;SDS011;6732;51.044;3.746;2023-06-14T10:10:33;2.78;;;2.58;;
13325;SDS011;6732;51.044;3.746;2023-06-14T10:12:59;2.60;;;2.40;;
13325;SDS011;6732;51.044;3.746;2023-06-14T10:17:59;2.72;;;2.53;;
13325;SDS011;6732;51.044;3.746;2023-06-14T10:23:39;3.35;;;2.70;;
13325;SDS011;6732;51.044;3.746;2023-06-14T10:26:08;3.05;;;2.78;;
13325;SDS011;6732;51.044;3.746;2023-06-14T10:28:42;2.95;;;2.75;;
13325;SDS011;6732;51.044;3.746;2023-06-14T10:31:39;3.22;;;2.95;;
13325;SDS011;6732;51.044;3.746;2023-06-14T10:34:11;3.85;;;2.72;;
13325;SDS011;6732;51.044;3.746;2023-06-14T10:36:46;2.65;;;2.45;;
13325;SDS011;6732;51.044;3.746;2023-06-14T10:39:45;2.97;;;2.67;;
13325;SDS011;6732;51.044;3.746;2023-06-14T10:42:12;3.55;;;2.50;;
13325;SDS011;6732;51.044;3.746;2023-06-14T10:44:40;3.28;;;2.97;;
13325;SDS011;6732;51.044;3.746;2023-06-14T10:47:29;2.95;;;2.75;;
13325;SDS011;6732;51.044;3.746;2023-06-14T10:52:34;2.90;;;2.70;;
13325;SDS011;6732;51.044;3.746;2023-06-14T10:55:15;2.88;;;2.67;;
13325;SDS011;6732;51.044;3.746;2023-06-14T10:57:48;2.65;;;2.45;;
13325;SDS011;6732;51.044;3.746;2023-06-14T11:00:21;2.80;;;2.60;;
13325;SDS011;6732;51.044;3.746;2023-06-14T11:05:50;3.53;;;2.65;;
13325;SDS011;6732;51.044;3.746;2023-06-14T11:11:06;2.75;;;2.55;;
13325;SDS011;6732;51.044;3.746;2023-06-14T11:13:33;2.70;;;2.50;;
13325;SDS011;6732;51.044;3.746;2023-06-14T11:16:03;2.80;;;2.60;;
13325;SDS011;6732;51.044;3.746;2023-06-14T11:18:39;4.78;;;2.70;;
13325;SDS011;6732;51.044;3.746;2023-06-14T11:21:06;2.72;;;2.53;;
13325;SDS011;6732;51.044;3.746;2023-06-14T11:23:34;2.70;;;2.50;;
13325;SDS011;6732;51.044;3.746;2023-06-14T11:26:01;3.33;;;3.03;;
13325;SDS011;6732;51.044;3.746;2023-06-14T11:28:37;3.03;;;2.72;;
13325;SDS011;6732;51.044;3.746;2023-06-14T11:31:05;2.88;;;2.67;;
13325;SDS011;6732;51.044;3.746;2023-06-14T11:33:32;2.70;;;2.50;;
13325;SDS011;6732;51.044;3.746;2023-06-14T11:36:01;3.38;;;3.00;;
13325;SDS011;6732;51.044;3.746;2023-06-14T11:38:28;2.92;;;2.72;;
13325;SDS011;6732;51.044;3.746;2023-06-14T11:40:58;2.90;;;2.70;;
13325;SDS011;6732;51.044;3.746;2023-06-14T11:43:25;2.60;;;2.40;;
13325;SDS011;6732;51.044;3.746;2023-06-14T11:45:52;2.80;;;2.58;;
13325;SDS011;6732;51.044;3.746;2023-06-14T11:48:18;2.88;;;2.67;;
13325;SDS011;6732;51.044;3.746;2023-06-14T11:50:44;2.67;;;2.47;;
13325;SDS011;6732;51.044;3.746;2023-06-14T11:53:10;2.90;;;2.70;;
13325;SDS011;6732;51.044;3.746;2023-06-14T11:55:37;3.00;;;2.80;;
13325;SDS011;6732;51.044;3.746;2023-06-14T11:58:04;2.92;;;2.72;;
13325;SDS011;6732;51.044;3.746;2023-06-14T12:00:30;3.55;;;2.83;;
13325;SDS011;6732;51.044;3.746;2023-06-14T12:02:56;3.08;;;2.78;;
13325;SDS011;6732;51.044;3.746;2023-06-14T12:05:22;2.90;;;2.70;;
13325;SDS011;6732;51.044;3.746;2023-06-14T12:07:50;2.97;;;2.78;;
13325;SDS011;6732;51.044;3.746;2023-06-14T12:10:18;2.67;;;2.47;;
13325;SDS011;6732;51.044;3.746;2023-06-14T12:12:45;2.90;;;2.70;;
13325;SDS011;6732;51.044;3.746;2023-06-14T12:15:11;2.70;;;2.50;;
13325;SDS011;6732;51.044;3.746;2023-06-14T12:17:37;2.60;;;2.40;;
13325;SDS011;6732;51.044;3.746;2023-06-14T12:20:13;3.00;;;2.70;;
13325;SDS011;6732;51.044;3.746;2023-06-14T12:22:51;2.92;;;2.72;;
13325;SDS011;6732;51.044;3.746;2023-06-14T12:25:31;3.13;;;2.80;;
13325;SDS011;6732;51.044;3.746;2023-06-14T12:27:59;3.05;;;2.85;;
13325;SDS011;6732;51.044;3.746;2023-06-14T12:30:32;2.80;;;2.60;;
13325;SDS011;6732;51.044;3.746;2023-06-14T12:32:59;2.70;;;2.50;;
13325;SDS011;6732;51.044;3.746;2023-06-14T12:35:25;2.85;;;2.65;;
13325;SDS011;6732;51.044;3.746;2023-06-14T12:37:52;2.85;;;2.65;;
13325;SDS011;6732;51.044;3.746;2023-06-14T12:40:18;2.90;;;2.70;;
13325;SDS011;6732;51.044;3.746;2023-06-14T12:42:44;2.85;;;2.65;;
13325;SDS011;6732;51.044;3.746;2023-06-14T12:45:12;3.00;;;2.80;;
13325;SDS011;6732;51.044;3.746;2023-06-14T12:47:38;2.80;;;2.60;;
13325;SDS011;6732;51.044;3.746;2023-06-14T12:50:05;2.80;;;2.60;;
13325;SDS011;6732;51.044;3.746;2023-06-14T12:52:31;4.10;;;2.70;;
13325;SDS011;6732;51.044;3.746;2023-06-14T12:55:04;3.10;;;2.80;;
13325;SDS011;6732;51.044;3.746;2023-06-14T12:57:30;2.83;;;2.63;;
13325;SDS011;6732;51.044;3.746;2023-06-14T12:59:56;2.80;;;2.60;;
13325;SDS011;6732;51.044;3.746;2023-06-14T13:02:22;2.67;;;2.47;;
13325;SDS011;6732;51.044;3.746;2023-06-14T13:04:49;2.30;;;2.20;;
13325;SDS011;6732;51.044;3.746;2023-06-14T13:07:16;2.63;;;2.47;;
13325;SDS011;6732;51.044;3.746;2023-06-14T13:09:42;3.92;;;2.60;;
13325;SDS011;6732;51.044;3.746;2023-06-14T13:12:10;2.95;;;2.72;;
13325;SDS011;6732;51.044;3.746;2023-06-14T13:14:37;2.80;;;2.60;;
13325;SDS011;6732;51.044;3.746;2023-06-14T13:17:04;2.72;;;2.53;;
13325;SDS011;6732;51.044;3.746;2023-06-14T13:19:30;2.70;;;2.50;;
13325;SDS011;6732;51.044;3.746;2023-06-14T13:21:56;2.90;;;2.70;;
13325;SDS011;6732;51.044;3.746;2023-06-14T13:24:23;2.80;;;2.60;;
13325;SDS011;6732;51.044;3.746;2023-06-14T13:26:48;2.72;;;2.53;;
13325;SDS011;6732;51.044;3.746;2023-06-14T13:29:14;3.25;;;2.95;;
13325;SDS011;6732;51.044;3.746;2023-06-14T13:31:40;2.72;;;2.53;;
13325;SDS011;6732;51.044;3.746;2023-06-14T13:34:06;2.72;;;2.53;;
13325;SDS011;6732;51.044;3.746;2023-06-14T13:36:32;2.75;;;2.55;;
13325;SDS011;6732;51.044;3.746;2023-06-14T13:39:00;3.03;;;2.78;;
13325;SDS011;6732;51.044;3.746;2023-06-14T13:41:27;2.72;;;2.53;;
13325;SDS011;6732;51.044;3.746;2023-06-14T13:43:57;2.83;;;2.63;;
13325;SDS011;6732;51.044;3.746;2023-06-14T13:46:23;2.67;;;2.47;;
13325;SDS011;6732;51.044;3.746;2023-06-14T13:48:50;2.42;;;2.33;;
13325;SDS011;6732;51.044;3.746;2023-06-14T13:51:15;2.38;;;2.17;;
13325;SDS011;6732;51.044;3.746;2023-06-14T13:53:45;2.80;;;2.60;;
13325;SDS011;6732;51.044;3.746;2023-06-14T13:56:11;2.67;;;2.47;;
13325;SDS011;6732;51.044;3.746;2023-06-14T13:58:37;2.67;;;2.47;;
13325;SDS011;6732;51.044;3.746;2023-06-14T14:01:04;2.83;;;2.63;;
13325;SDS011;6732;51.044;3.746;2023-06-14T14:03:30;2.92;;;2.60;;
13325;SDS011;6732;51.044;3.746;2023-06-14T14:05:57;2.70;;;2.50;;
13325;SDS011;6732;51.044;3.746;2023-06-14T14:08:23;2.70;;;2.50;;
13325;SDS011;6732;51.044;3.746;2023-06-14T14:10:49;2.92;;;2.65;;
13325;SDS011;6732;51.044;3.746;2023-06-14T14:13:15;2.85;;;2.65;;
13325;SDS011;6732;51.044;3.746;2023-06-14T14:15:41;2.90;;;2.70;;
13325;SDS011;6732;51.044;3.746;2023-06-14T14:18:07;2.80;;;2.60;;
13325;SDS011;6732;51.044;3.746;2023-06-14T14:20:34;2.50;;;2.30;;
13325;SDS011;6732;51.044;3.746;2023-06-14T14:23:00;2.60;;;2.40;;
13325;SDS011;6732;51.044;3.746;2023-06-14T14:25:27;2.70;;;2.50;;
13325;SDS011;6732;51.044;3.746;2023-06-14T14:27:53;3.55;;;2.55;;
13325;SDS011;6732;51.044;3.746;2023-06-14T14:30:19;2.50;;;2.30;;
13325;SDS011;6732;51.044;3.746;2023-06-14T14:32:49;2.53;;;2.33;;
13325;SDS011;6732;51.044;3.746;2023-06-14T14:35:17;2.88;;;2.60;;
13325;SDS011;6732;51.044;3.746;2023-06-14T14:37:43;2.42;;;2.33;;
13325;SDS011;6732;51.044;3.746;2023-06-14T14:40:10;2.75;;;2.50;;
13325;SDS011;6732;51.044;3.746;2023-06-14T14:42:37;2.60;;;2.40;;
13325;SDS011;6732;51.044;3.746;2023-06-14T14:45:03;2.88;;;2.60;;
13325;SDS011;6732;51.044;3.746;2023-06-14T14:47:29;2.60;;;2.40;;
13325;SDS011;6732;51.044;3.746;2023-06-14T14:49:55;2.20;;;2.10;;
13325;SDS011;6732;51.044;3.746;2023-06-14T14:52:21;2.80;;;2.60;;
13325;SDS011;6732;51.044;3.746;2023-06-14T14:54:47;2.67;;;2.40;;
13325;SDS011;6732;51.044;3.746;2023-06-14T14:57:13;2.70;;;2.50;;
13325;SDS011;6732;51.044;3.746;2023-06-14T14:59:39;2.60;;;2.40;;
13325;SDS011;6732;51.044;3.746;2023-06-14T15:02:05;2.55;;;2.40;;
13325;SDS011;6732;51.044;3.746;2023-06-14T15:04:31;2.47;;;2.28;;
13325;SDS011;6732;51.044;3.746;2023-06-14T15:06:57;2.90;;;2.70;;
13325;SDS011;6732;51.044;3.746;2023-06-14T15:09:23;2.38;;;2.28;;
13325;SDS011;6732;51.044;3.746;2023-06-14T15:11:49;2.53;;;2.33;;
13325;SDS011;6732;51.044;3.746;2023-06-14T15:14:15;3.35;;;2.40;;
13325;SDS011;6732;51.044;3.746;2023-06-14T15:16:41;2.55;;;2.35;;
13325;SDS011;6732;51.044;3.746;2023-06-14T15:19:07;2.35;;;2.15;;
13325;SDS011;6732;51.044;3.746;2023-06-14T15:21:33;2.75;;;2.20;;
13325;SDS011;6732;51.044;3.746;2023-06-14T15:24:00;2.28;;;2.17;;
13325;SDS011;6732;51.044;3.746;2023-06-14T15:26:26;2.55;;;2.45;;
13325;SDS011;6732;51.044;3.746;2023-06-14T15:28:52;2.53;;;2.17;;
13325;SDS011;6732;51.044;3.746;2023-06-14T15:31:18;2.53;;;2.30;;
13325;SDS011;6732;51.044;3.746;2023-06-14T15:33:44;2.65;;;2.30;;
13325;SDS011;6732;51.044;3.746;2023-06-14T15:36:10;2.50;;;2.30;;
13325;SDS011;6732;51.044;3.746;2023-06-14T15:38:36;2.20;;;2.10;;
13325;SDS011;6732;51.044;3.746;2023-06-14T15:41:02;2.38;;;2.17;;
13325;SDS011;6732;51.044;3.746;2023-06-14T15:43:28;2.28;;;1.88;;